createdAt,value
2023-03-18T00:00:43.633Z,5.22
2023-03-18T00:03:11.421Z,5.20
2023-03-18T00:05:38.188Z,5.23
2023-03-18T00:08:06.681Z,5.20
2023-03-18T00:10:35.245Z,5.17
2023-03-18T00:13:04.767Z,5.13
2023-03-18T00:15:31.871Z,5.13
2023-03-18T00:17:59.935Z,5.07
2023-03-18T00:20:38.785Z,5.05
2023-03-18T00:23:08.675Z,4.99
2023-03-18T00:25:36.782Z,4.93
2023-03-18T00:28:05.220Z,4.91
2023-03-18T00:30:32.989Z,4.92
2023-03-18T00:33:00.566Z,4.88
2023-03-18T00:35:31.062Z,4.89
2023-03-18T00:38:03.950Z,4.87
2023-03-18T00:40:43.358Z,4.88
2023-03-18T00:43:12.748Z,4.85
2023-03-18T00:45:41.399Z,4.83
2023-03-18T00:48:09.024Z,4.80
2023-03-18T00:50:37.140Z,4.78
2023-03-18T00:53:04.266Z,4.75
2023-03-18T00:55:31.115Z,4.72
2023-03-18T00:57:57.977Z,4.62
2023-03-18T01:00:26.305Z,4.60
2023-03-18T01:02:53.631Z,4.56
2023-03-18T01:05:21.919Z,4.59
2023-03-18T01:07:49.416Z,4.58
2023-03-18T01:10:17.116Z,4.53
2023-03-18T01:12:48.252Z,4.47
2023-03-18T01:15:17.785Z,4.43
2023-03-18T01:17:45.602Z,4.37
2023-03-18T01:20:14.368Z,4.34
2023-03-18T01:22:42.342Z,4.38
2023-03-18T01:25:11.740Z,4.40
2023-03-18T01:27:40.723Z,4.37
2023-03-18T01:30:09.283Z,4.32
2023-03-18T01:32:36.696Z,4.33
2023-03-18T01:35:03.907Z,4.31
2023-03-18T01:37:31.601Z,4.31
2023-03-18T01:40:11.396Z,4.27
2023-03-18T01:42:38.952Z,4.23
2023-03-18T01:45:21.942Z,4.15
2023-03-18T01:47:51.692Z,4.16
2023-03-18T01:50:24.575Z,4.09
2023-03-18T01:52:58.064Z,4.03
2023-03-18T01:55:26.837Z,3.85
2023-03-18T01:57:54.444Z,3.99
2023-03-18T02:00:23.471Z,3.95
2023-03-18T02:02:53.723Z,3.95
2023-03-18T02:07:51.783Z,3.94
2023-03-18T02:10:25.373Z,3.92
2023-03-18T02:13:02.604Z,3.88
2023-03-18T02:15:35.353Z,3.90
2023-03-18T02:18:30.958Z,3.82
2023-03-18T02:21:04.154Z,3.83
2023-03-18T02:23:53.070Z,3.78
2023-03-18T02:26:44.622Z,3.73
2023-03-18T02:29:14.779Z,3.66
2023-03-18T02:31:52.207Z,3.65
2023-03-18T02:34:25.614Z,3.62
2023-03-18T02:36:54.810Z,3.67
2023-03-18T02:39:23.146Z,3.64
2023-03-18T02:41:53.348Z,3.61
2023-03-18T02:44:21.296Z,3.53
2023-03-18T02:47:14.329Z,3.49
2023-03-18T02:49:41.495Z,3.46
2023-03-18T02:52:08.728Z,3.41
2023-03-18T02:54:36.159Z,3.44
2023-03-18T02:57:03.143Z,3.44
2023-03-18T02:59:32.505Z,3.47
2023-03-18T03:02:00.809Z,3.50
2023-03-18T03:04:28.173Z,3.42
2023-03-18T03:06:56.889Z,3.34
2023-03-18T03:09:37.859Z,3.21
2023-03-18T03:12:06.818Z,3.20
2023-03-18T03:14:36.974Z,3.20
2023-03-18T03:17:04.367Z,3.17
2023-03-18T03:19:31.839Z,3.19
2023-03-18T03:21:58.918Z,3.17
2023-03-18T03:24:25.894Z,3.13
2023-03-18T03:26:52.766Z,3.10
2023-03-18T03:29:20.380Z,3.06
2023-03-18T03:31:49.394Z,3.13
2023-03-18T03:34:16.131Z,3.10
2023-03-18T03:36:43.173Z,3.08
2023-03-18T03:39:10.745Z,3.14
2023-03-18T03:41:37.546Z,3.00
2023-03-18T03:44:04.920Z,2.99
2023-03-18T03:46:32.284Z,2.99
2023-03-18T03:48:59.672Z,2.97
2023-03-18T03:51:26.425Z,3.02
2023-03-18T03:53:53.294Z,2.94
2023-03-18T03:56:20.112Z,2.96
2023-03-18T03:58:47.008Z,2.95
2023-03-18T04:01:14.183Z,2.90
2023-03-18T04:03:42.581Z,2.87
2023-03-18T04:06:09.353Z,2.88
2023-03-18T04:08:41.577Z,2.94
2023-03-18T04:11:08.420Z,2.82
2023-03-18T04:13:35.182Z,2.78
2023-03-18T04:16:04.115Z,2.78
2023-03-18T04:18:31.175Z,2.79
2023-03-18T04:20:57.906Z,2.77
2023-03-18T04:23:42.615Z,2.71
2023-03-18T04:26:09.412Z,2.75
2023-03-18T04:28:36.440Z,2.72
2023-03-18T04:31:05.849Z,2.76
2023-03-18T04:33:33.085Z,2.71
2023-03-18T04:36:00.360Z,2.71
2023-03-18T04:38:28.552Z,2.70
2023-03-18T04:40:55.779Z,2.65
2023-03-18T04:43:22.962Z,2.60
2023-03-18T04:45:50.908Z,2.58
2023-03-18T04:48:18.443Z,2.53
2023-03-18T04:50:46.366Z,2.44
2023-03-18T04:53:18.790Z,2.34
2023-03-18T04:55:45.710Z,2.34
2023-03-18T04:58:14.422Z,2.33
2023-03-18T05:00:50.285Z,2.38
2023-03-18T05:03:25.384Z,2.41
2023-03-18T05:05:53.520Z,2.45
2023-03-18T05:08:29.057Z,2.50
2023-03-18T05:10:56.505Z,2.51
2023-03-18T05:13:24.173Z,2.44
2023-03-18T05:15:53.646Z,2.40
2023-03-18T05:18:21.140Z,2.41
2023-03-18T05:20:50.851Z,2.41
2023-03-18T05:23:18.926Z,2.38
2023-03-18T05:25:53.425Z,2.47
2023-03-18T05:28:22.775Z,2.54
2023-03-18T05:31:05.804Z,2.74
2023-03-18T05:33:36.075Z,3.18
2023-03-18T05:36:03.733Z,3.64
2023-03-18T05:38:36.473Z,3.84
2023-03-18T05:41:03.368Z,3.92
2023-03-18T05:43:37.794Z,4.07
2023-03-18T05:46:05.959Z,4.09
2023-03-18T05:48:48.971Z,3.94
2023-03-18T05:51:15.976Z,4.21
2023-03-18T05:53:42.785Z,4.65
2023-03-18T05:56:20.349Z,4.70
2023-03-18T05:58:51.260Z,4.65
2023-03-18T06:01:27.302Z,5.06
2023-03-18T06:03:55.351Z,5.21
2023-03-18T06:06:22.108Z,5.48
2023-03-18T06:08:48.901Z,5.95
2023-03-18T06:11:15.767Z,6.20
2023-03-18T06:13:43.430Z,6.76
2023-03-18T06:16:11.550Z,7.32
2023-03-18T06:18:39.018Z,7.49
2023-03-18T06:21:09.153Z,8.24
2023-03-18T06:23:36.762Z,8.77
2023-03-18T06:26:04.345Z,8.93
2023-03-18T06:28:36.662Z,9.04
2023-03-18T06:31:10.888Z,9.33
2023-03-18T06:33:38.568Z,9.20
2023-03-18T06:36:08.354Z,9.31
2023-03-18T06:38:35.157Z,9.60
2023-03-18T06:41:02.609Z,9.86
2023-03-18T06:43:33.379Z,10.19
2023-03-18T06:46:00.888Z,10.34
2023-03-18T06:48:28.963Z,10.39
2023-03-18T06:50:57.422Z,10.47
2023-03-18T06:53:30.530Z,10.53
2023-03-18T06:55:58.437Z,10.66
2023-03-18T06:58:30.670Z,10.77
2023-03-18T07:01:04.889Z,10.90
2023-03-18T07:03:37.508Z,10.90
2023-03-18T07:06:04.607Z,10.44
2023-03-18T07:08:32.493Z,10.04
2023-03-18T07:10:59.287Z,10.13
2023-03-18T07:13:27.100Z,10.03
2023-03-18T07:15:56.698Z,10.45
2023-03-18T07:18:25.670Z,10.57
2023-03-18T07:20:52.853Z,10.82
2023-03-18T07:23:22.346Z,11.15
2023-03-18T07:25:49.818Z,11.43
2023-03-18T07:28:19.529Z,11.59
2023-03-18T07:30:47.071Z,11.76
2023-03-18T07:33:14.431Z,11.99
2023-03-18T07:35:41.853Z,12.02
2023-03-18T07:38:09.813Z,11.76
2023-03-18T07:40:37.660Z,11.59
2023-03-18T07:43:05.852Z,11.70
2023-03-18T07:45:33.516Z,11.96
2023-03-18T07:48:00.966Z,12.21
2023-03-18T07:50:28.064Z,12.59
2023-03-18T07:52:55.200Z,12.78
2023-03-18T07:55:22.003Z,12.90
2023-03-18T07:57:49.297Z,12.89
2023-03-18T08:00:16.874Z,12.73
2023-03-18T08:02:43.940Z,12.81
2023-03-18T08:05:11.453Z,13.02
2023-03-18T08:07:38.561Z,12.96
2023-03-18T08:10:06.086Z,12.97
2023-03-18T08:12:45.242Z,12.89
2023-03-18T08:15:18.268Z,13.00
2023-03-18T08:17:45.240Z,12.93
2023-03-18T08:20:12.498Z,12.80
2023-03-18T08:22:39.591Z,13.01
2023-03-18T08:25:06.984Z,13.29
2023-03-18T08:27:33.768Z,13.50
2023-03-18T08:30:03.046Z,13.57
2023-03-18T08:32:30.849Z,13.69
2023-03-18T08:34:57.915Z,13.81
2023-03-18T08:37:24.891Z,13.87
2023-03-18T08:39:51.659Z,13.92
2023-03-18T08:42:19.218Z,13.78
2023-03-18T08:44:45.962Z,13.67
2023-03-18T08:47:12.726Z,13.54
2023-03-18T08:49:39.508Z,13.48
2023-03-18T08:52:06.999Z,13.51
2023-03-18T08:54:34.003Z,13.63
2023-03-18T08:57:00.746Z,13.57
2023-03-18T08:59:27.549Z,13.58
2023-03-18T09:01:54.290Z,13.59
2023-03-18T09:04:21.016Z,13.85
2023-03-18T09:06:48.997Z,13.79
2023-03-18T09:09:16.819Z,13.69
2023-03-18T09:11:45.704Z,13.47
2023-03-18T09:14:13.412Z,13.42
2023-03-18T09:16:40.835Z,13.49
2023-03-18T09:19:07.636Z,13.50
2023-03-18T09:21:34.341Z,13.50
2023-03-18T09:24:01.092Z,13.41
2023-03-18T09:26:27.803Z,13.28
2023-03-18T09:28:54.518Z,13.14
2023-03-18T09:31:21.382Z,13.10
2023-03-18T09:33:48.390Z,13.19
2023-03-18T09:36:15.744Z,13.18
2023-03-18T09:38:42.714Z,13.17
2023-03-18T09:41:21.214Z,13.21
2023-03-18T09:44:02.822Z,13.13
2023-03-18T09:46:41.601Z,13.25
2023-03-18T09:49:23.632Z,13.30
2023-03-18T09:52:14.463Z,13.27
2023-03-18T09:55:18.035Z,13.11
2023-03-18T09:57:47.620Z,12.98
2023-03-18T10:00:24.381Z,12.90
2023-03-18T10:02:57.539Z,12.83
2023-03-18T10:05:48.628Z,12.63
2023-03-18T10:08:27.421Z,12.61
2023-03-18T10:10:54.357Z,12.42
2023-03-18T10:13:31.814Z,12.42
2023-03-18T10:16:03.678Z,12.53
2023-03-18T10:18:33.651Z,12.57
2023-03-18T10:21:35.091Z,12.53
2023-03-18T10:24:13.608Z,12.63
2023-03-18T10:27:17.164Z,12.39
2023-03-18T10:29:46.824Z,12.26
2023-03-18T10:32:25.134Z,12.31
2023-03-18T10:35:17.451Z,12.41
2023-03-18T10:38:04.647Z,12.32
2023-03-18T10:40:41.439Z,12.44
2023-03-18T10:43:17.163Z,12.54
2023-03-18T10:45:45.316Z,12.61
2023-03-18T10:48:21.103Z,12.58
2023-03-18T10:51:07.706Z,12.54
2023-03-18T10:53:55.702Z,12.69
2023-03-18T10:56:22.642Z,12.78
2023-03-18T10:58:52.371Z,12.90
2023-03-18T11:01:23.360Z,12.96
2023-03-18T11:04:06.829Z,13.01
2023-03-18T11:06:36.482Z,12.82
2023-03-18T11:09:09.994Z,13.03
2023-03-18T11:11:42.401Z,13.16
2023-03-18T11:14:20.964Z,13.22
2023-03-18T11:17:01.155Z,13.22
2023-03-18T11:19:32.684Z,13.36
2023-03-18T11:22:24.845Z,13.30
2023-03-18T11:25:14.020Z,13.25
2023-03-18T11:27:50.593Z,13.20
2023-03-18T11:30:41.536Z,13.19
2023-03-18T11:33:11.941Z,13.32
2023-03-18T11:35:45.287Z,13.24
2023-03-18T11:38:16.642Z,13.27
2023-03-18T11:40:43.905Z,13.30
2023-03-18T11:43:19.673Z,13.12
2023-03-18T11:45:57.878Z,13.11
2023-03-18T11:48:40.492Z,13.08
2023-03-18T11:51:35.223Z,13.09
2023-03-18T11:54:49.141Z,13.09
2023-03-18T11:57:32.351Z,13.18
2023-03-18T12:00:17.687Z,13.17
2023-03-18T12:03:23.036Z,13.14
2023-03-18T12:05:58.667Z,13.40
2023-03-18T12:08:31.753Z,13.46
2023-03-18T12:11:30.851Z,13.43
2023-03-18T12:14:19.201Z,13.39
2023-03-18T12:17:15.141Z,13.45
2023-03-18T12:19:44.848Z,13.51
2023-03-18T12:22:24.079Z,13.47
2023-03-18T12:25:06.747Z,13.50
2023-03-18T12:27:52.577Z,13.43
2023-03-18T12:31:00.742Z,13.48
2023-03-18T12:33:58.050Z,13.45
2023-03-18T12:36:30.303Z,13.54
2023-03-18T12:39:04.189Z,13.59
2023-03-18T12:41:49.823Z,13.66
2023-03-18T12:44:37.964Z,13.70
2023-03-18T12:47:25.888Z,13.74
2023-03-18T12:50:03.436Z,13.76
2023-03-18T12:52:38.640Z,13.86
2023-03-18T12:55:22.647Z,13.95
2023-03-18T12:57:50.713Z,14.00
2023-03-18T13:00:28.448Z,14.00
2023-03-18T13:03:28.873Z,14.06
2023-03-18T13:06:05.131Z,14.16
2023-03-18T13:08:52.479Z,14.03
2023-03-18T13:11:40.591Z,13.99
2023-03-18T13:14:13.430Z,14.11
2023-03-18T13:16:41.471Z,14.14
2023-03-18T13:19:10.887Z,14.11
2023-03-18T13:21:48.299Z,14.17
2023-03-18T13:24:23.896Z,14.28
2023-03-18T13:27:20.983Z,14.27
2023-03-18T13:30:21.362Z,14.32
2023-03-18T13:32:56.641Z,14.34
2023-03-18T13:35:41.200Z,14.37
2023-03-18T13:38:33.584Z,14.31
2023-03-18T13:41:18.783Z,14.30
2023-03-18T13:43:49.501Z,14.37
2023-03-18T13:46:26.031Z,14.40
2023-03-18T13:49:01.266Z,14.45
2023-03-18T13:51:30.745Z,14.48
2023-03-18T13:54:12.247Z,14.47
2023-03-18T13:56:42.837Z,14.55
2023-03-18T13:59:34.582Z,14.47
2023-03-18T14:02:29.511Z,14.47
2023-03-18T14:05:00.057Z,14.57
2023-03-18T14:07:27.862Z,14.58
2023-03-18T14:10:17.235Z,14.57
2023-03-18T14:12:49.848Z,14.56
2023-03-18T14:15:28.748Z,14.55
2023-03-18T14:17:58.505Z,14.52
2023-03-18T14:20:53.423Z,14.41
2023-03-18T14:23:44.356Z,14.49
2023-03-18T14:26:26.655Z,14.51
2023-03-18T14:29:02.742Z,14.54
2023-03-18T14:31:38.461Z,14.48
2023-03-18T14:34:24.563Z,14.51
2023-03-18T14:36:53.989Z,14.63
2023-03-18T14:39:25.816Z,14.63
2023-03-18T14:41:57.122Z,14.68
2023-03-18T14:44:46.549Z,14.70
2023-03-18T14:47:39.517Z,14.67
2023-03-18T14:50:24.771Z,14.59
2023-03-18T14:52:56.678Z,14.67
2023-03-18T14:55:35.813Z,14.60
2023-03-18T14:58:03.210Z,14.61
2023-03-18T15:00:34.577Z,14.61
2023-03-18T15:03:07.746Z,14.63
2023-03-18T15:05:41.470Z,14.59
2023-03-18T15:08:15.179Z,14.69
2023-03-18T15:10:43.127Z,14.68
2023-03-18T15:13:14.935Z,14.64
2023-03-18T15:15:42.909Z,14.63
2023-03-18T15:18:32.573Z,14.51
2023-03-18T15:21:07.864Z,14.59
2023-03-18T15:23:42.827Z,14.53
2023-03-18T15:26:20.959Z,14.51
2023-03-18T15:28:49.163Z,14.57
2023-03-18T15:31:45.309Z,14.42
2023-03-18T15:34:31.837Z,14.39
2023-03-18T15:37:02.015Z,14.39
2023-03-18T15:39:36.192Z,14.37
2023-03-18T15:42:11.620Z,14.35
2023-03-18T15:44:39.579Z,14.28
2023-03-18T15:47:43.560Z,14.09
2023-03-18T15:50:16.174Z,13.94
2023-03-18T15:52:43.752Z,14.11
2023-03-18T15:55:35.648Z,14.04
2023-03-18T15:58:06.040Z,14.09
2023-03-18T16:00:34.345Z,14.08
2023-03-18T16:03:01.235Z,14.06
2023-03-18T16:05:29.212Z,14.02
2023-03-18T16:07:57.051Z,13.97
2023-03-18T16:10:26.339Z,13.91
2023-03-18T16:13:01.720Z,13.81
2023-03-18T16:15:29.852Z,13.85
2023-03-18T16:17:57.851Z,13.81
2023-03-18T16:20:30.319Z,13.71
2023-03-18T16:22:57.931Z,13.71
2023-03-18T16:25:27.153Z,13.63
2023-03-18T16:27:56.347Z,13.61
2023-03-18T16:30:26.620Z,13.52
2023-03-18T16:32:54.836Z,13.52
2023-03-18T16:35:24.549Z,13.50
2023-03-18T16:37:51.966Z,13.46
2023-03-18T16:40:21.562Z,13.39
2023-03-18T16:42:49.144Z,13.36
2023-03-18T16:45:18.554Z,13.32
2023-03-18T16:47:47.367Z,13.29
2023-03-18T16:50:22.604Z,13.21
2023-03-18T16:52:50.446Z,13.21
2023-03-18T16:55:19.456Z,13.16
2023-03-18T16:57:59.000Z,13.06
2023-03-18T17:00:32.086Z,13.06
2023-03-18T17:03:00.201Z,12.99
2023-03-18T17:05:27.817Z,12.95
2023-03-18T17:07:55.074Z,12.92
2023-03-18T17:10:26.326Z,12.85
2023-03-18T17:13:02.548Z,12.78
2023-03-18T17:15:32.453Z,12.77
2023-03-18T17:17:59.755Z,12.76
2023-03-18T17:20:29.083Z,12.72
2023-03-18T17:22:56.488Z,12.67
2023-03-18T17:25:24.449Z,12.63
2023-03-18T17:27:59.903Z,12.52
2023-03-18T17:30:37.225Z,12.48
2023-03-18T17:33:05.326Z,12.44
2023-03-18T17:35:32.942Z,12.36
2023-03-18T17:37:59.876Z,12.32
2023-03-18T17:40:30.405Z,12.24
2023-03-18T17:42:57.368Z,12.18
2023-03-18T17:45:32.680Z,12.10
2023-03-18T17:48:36.442Z,11.97
2023-03-18T17:51:12.055Z,12.00
2023-03-18T17:53:48.495Z,11.99
2023-03-18T17:56:17.519Z,11.95
2023-03-18T17:58:47.202Z,11.90
2023-03-18T18:01:19.753Z,11.86
2023-03-18T18:03:47.846Z,11.79
2023-03-18T18:06:26.105Z,11.76
2023-03-18T18:08:56.110Z,11.76
2023-03-18T18:11:27.261Z,11.70
2023-03-18T18:14:02.101Z,11.70
2023-03-18T18:16:29.327Z,11.68
2023-03-18T18:18:56.146Z,11.62
2023-03-18T18:21:25.794Z,11.56
2023-03-18T18:23:52.636Z,11.53
2023-03-18T18:26:22.148Z,11.48
2023-03-18T18:28:51.504Z,11.42
2023-03-18T18:31:20.042Z,11.37
2023-03-18T18:33:49.969Z,11.31
2023-03-18T18:36:18.099Z,11.26
2023-03-18T18:38:45.158Z,11.22
2023-03-18T18:41:12.183Z,11.16
2023-03-18T18:43:39.175Z,11.13
2023-03-18T18:46:15.041Z,11.07
2023-03-18T18:48:43.721Z,11.07
2023-03-18T18:51:18.332Z,11.01
2023-03-18T18:53:46.399Z,10.98
2023-03-18T18:56:19.883Z,10.95
2023-03-18T18:58:47.617Z,10.91
2023-03-18T19:01:15.173Z,10.88
2023-03-18T19:03:42.242Z,10.84
2023-03-18T19:06:26.480Z,10.77
2023-03-18T19:08:56.632Z,10.80
2023-03-18T19:11:24.818Z,10.76
2023-03-18T19:13:52.384Z,10.72
2023-03-18T19:16:22.047Z,10.67
2023-03-18T19:18:48.978Z,10.61
2023-03-18T19:21:15.779Z,10.56
2023-03-18T19:23:42.464Z,10.50
2023-03-18T19:26:13.922Z,10.43
2023-03-18T19:28:58.336Z,10.39
2023-03-18T19:31:30.605Z,10.33
2023-03-18T19:34:00.248Z,10.28
2023-03-18T19:36:32.737Z,10.21
2023-03-18T19:39:01.304Z,10.16
2023-03-18T19:41:28.653Z,10.12
2023-03-18T19:43:59.738Z,10.02
2023-03-18T19:46:39.202Z,9.92
2023-03-18T19:49:24.167Z,9.78
2023-03-18T19:51:52.572Z,9.76
2023-03-18T19:54:31.529Z,9.60
2023-03-18T19:57:01.476Z,9.55
2023-03-18T19:59:37.403Z,9.47
2023-03-18T20:02:19.885Z,9.35
2023-03-18T20:04:47.942Z,9.30
2023-03-18T20:07:14.870Z,9.25
2023-03-18T20:09:41.765Z,9.21
2023-03-18T20:12:22.829Z,9.17
2023-03-18T20:14:49.818Z,9.14
2023-03-18T20:17:34.564Z,9.05
2023-03-18T20:20:01.384Z,9.05
2023-03-18T20:22:40.125Z,9.01
2023-03-18T20:25:14.876Z,9.00
2023-03-18T20:27:42.593Z,9.04
2023-03-18T20:30:32.317Z,8.92
2023-03-18T20:33:04.249Z,8.93
2023-03-18T20:35:34.026Z,8.89
2023-03-18T20:38:13.963Z,8.86
2023-03-18T20:40:42.562Z,8.84
2023-03-18T20:43:15.478Z,8.76
2023-03-18T20:45:42.319Z,8.72
2023-03-18T20:48:09.714Z,8.69
2023-03-18T20:50:37.111Z,8.65
2023-03-18T20:53:06.074Z,8.62
2023-03-18T20:55:35.383Z,8.60
2023-03-18T20:58:03.533Z,8.62
2023-03-18T21:00:33.228Z,8.56
2023-03-18T21:03:01.834Z,8.54
2023-03-18T21:05:28.669Z,8.51
2023-03-18T21:07:55.928Z,8.47
2023-03-18T21:10:25.750Z,8.47
2023-03-18T21:12:53.029Z,8.45
2023-03-18T21:15:22.975Z,8.39
2023-03-18T21:17:50.340Z,8.40
2023-03-18T21:20:22.408Z,8.33
2023-03-18T21:22:50.580Z,8.31
2023-03-18T21:25:26.553Z,8.31
2023-03-18T21:27:53.913Z,8.24
2023-03-18T21:30:22.729Z,8.22
2023-03-18T21:32:51.021Z,8.18
2023-03-18T21:35:21.775Z,8.17
2023-03-18T21:37:48.784Z,8.15
2023-03-18T21:40:18.673Z,8.13
2023-03-18T21:42:46.607Z,8.10
2023-03-18T21:45:16.865Z,8.11
2023-03-18T21:47:44.550Z,8.07
2023-03-18T21:50:24.159Z,7.97
2023-03-18T21:52:52.106Z,7.98
2023-03-18T21:55:19.402Z,7.99
2023-03-18T21:57:48.839Z,7.95
2023-03-18T22:00:20.639Z,7.92
2023-03-18T22:02:48.314Z,7.90
2023-03-18T22:05:18.226Z,7.86
2023-03-18T22:07:45.334Z,7.88
2023-03-18T22:10:16.870Z,7.80
2023-03-18T22:12:43.811Z,7.81
2023-03-18T22:15:36.063Z,7.74
2023-03-18T22:18:03.185Z,7.75
2023-03-18T22:20:30.599Z,7.74
2023-03-18T22:22:57.470Z,7.73
2023-03-18T22:25:34.289Z,7.69
2023-03-18T22:28:01.545Z,7.70
2023-03-18T22:30:30.890Z,7.69
2023-03-18T22:32:59.178Z,7.72
2023-03-18T22:35:27.819Z,7.68
2023-03-18T22:37:55.252Z,7.64
2023-03-18T22:40:30.359Z,7.59
2023-03-18T22:43:01.627Z,7.58
2023-03-18T22:45:29.809Z,7.58
2023-03-18T22:47:59.390Z,7.60
2023-03-18T22:50:28.327Z,7.61
2023-03-18T22:53:08.322Z,7.58
2023-03-18T22:55:40.360Z,7.55
2023-03-18T22:58:07.657Z,7.52
2023-03-18T23:00:38.424Z,7.48
2023-03-18T23:03:18.598Z,7.45
2023-03-18T23:05:48.129Z,7.51
2023-03-18T23:08:15.426Z,7.41
2023-03-18T23:10:43.831Z,7.40
2023-03-18T23:13:28.898Z,7.35
2023-03-18T23:15:56.308Z,7.34
2023-03-18T23:18:23.766Z,7.33
2023-03-18T23:20:51.827Z,7.31
2023-03-18T23:23:20.946Z,7.28
2023-03-18T23:25:47.964Z,7.27
2023-03-18T23:28:16.146Z,7.26
2023-03-18T23:30:46.604Z,7.23
2023-03-18T23:33:13.941Z,7.22
2023-03-18T23:35:41.836Z,7.18
2023-03-18T23:38:08.633Z,7.17
2023-03-18T23:40:35.701Z,7.17
2023-03-18T23:43:04.018Z,7.17
2023-03-18T23:45:32.066Z,7.11
2023-03-18T23:47:59.068Z,7.10
2023-03-18T23:50:25.874Z,7.12
2023-03-18T23:52:52.714Z,7.13
2023-03-18T23:55:37.888Z,7.07
2023-03-18T23:58:05.282Z,7.04
